sensor_id;sensor_type;location;lat;lon;timestamp;P1;durP1;ratioP1;P2;durP2;ratioP2
3696;SDS011;60662;48.810;8.872;2024-02-21T07:01:18;22.98;;;11.00;;
3696;SDS011;60662;48.810;8.872;2024-02-21T07:02:20;15.15;;;4.85;;
3696;SDS011;60662;48.810;8.872;2024-02-21T07:07:38;13.27;;;2.35;;
3696;SDS011;60662;48.810;8.872;2024-02-21T07:08:41;12.63;;;2.20;;
3696;SDS011;60662;48.810;8.872;2024-02-21T07:12:03;8.77;;;2.72;;
3696;SDS011;60662;48.810;8.872;2024-02-21T07:13:06;11.27;;;2.13;;
3696;SDS011;60662;48.810;8.872;2024-02-21T07:15:56;9.32;;;1.73;;
3696;SDS011;60662;48.810;8.872;2024-02-21T07:18:15;8.07;;;2.55;;
3696;SDS011;60662;48.810;8.872;2024-02-21T07:19:16;15.07;;;2.50;;
3696;SDS011;60662;48.810;8.872;2024-02-21T07:20:18;9.93;;;2.67;;
3696;SDS011;60662;48.810;8.872;2024-02-21T07:21:19;6.80;;;2.33;;
3696;SDS011;60662;48.810;8.872;2024-02-21T07:22:21;9.95;;;2.17;;
3696;SDS011;60662;48.810;8.872;2024-02-21T07:23:22;11.82;;;2.35;;
3696;SDS011;60662;48.810;8.872;2024-02-21T07:24:24;11.98;;;2.50;;
3696;SDS011;60662;48.810;8.872;2024-02-21T07:25:25;7.00;;;2.83;;
3696;SDS011;60662;48.810;8.872;2024-02-21T07:26:27;8.88;;;2.80;;
3696;SDS011;60662;48.810;8.872;2024-02-21T07:27:28;9.13;;;2.78;;
3696;SDS011;60662;48.810;8.872;2024-02-21T07:28:32;7.88;;;2.33;;
3696;SDS011;60662;48.810;8.872;2024-02-21T07:29:34;13.02;;;5.00;;
3696;SDS011;60662;48.810;8.872;2024-02-21T07:30:35;9.98;;;2.30;;
3696;SDS011;60662;48.810;8.872;2024-02-21T07:31:43;19.75;;;4.70;;
3696;SDS011;60662;48.810;8.872;2024-02-21T07:32:45;14.27;;;5.53;;
3696;SDS011;60662;48.810;8.872;2024-02-21T07:33:49;8.65;;;2.45;;
3696;SDS011;60662;48.810;8.872;2024-02-21T07:34:51;8.75;;;2.40;;
3696;SDS011;60662;48.810;8.872;2024-02-21T07:35:52;7.68;;;2.08;;
3696;SDS011;60662;48.810;8.872;2024-02-21T07:36:57;5.75;;;1.98;;
3696;SDS011;60662;48.810;8.872;2024-02-21T07:37:59;8.05;;;1.83;;
3696;SDS011;60662;48.810;8.872;2024-02-21T07:39:00;10.15;;;2.20;;
3696;SDS011;60662;48.810;8.872;2024-02-21T07:40:02;15.52;;;2.33;;
3696;SDS011;60662;48.810;8.872;2024-02-21T07:41:05;8.52;;;2.42;;
3696;SDS011;60662;48.810;8.872;2024-02-21T07:42:07;12.43;;;2.17;;
3696;SDS011;60662;48.810;8.872;2024-02-21T07:43:08;12.25;;;2.10;;
3696;SDS011;60662;48.810;8.872;2024-02-21T07:44:10;30.05;;;4.32;;
3696;SDS011;60662;48.810;8.872;2024-02-21T07:45:11;29.77;;;4.40;;
3696;SDS011;60662;48.810;8.872;2024-02-21T07:46:13;14.35;;;2.70;;
3696;SDS011;60662;48.810;8.872;2024-02-21T07:47:14;12.20;;;2.15;;
3696;SDS011;60662;48.810;8.872;2024-02-21T07:48:16;12.20;;;2.67;;
3696;SDS011;60662;48.810;8.872;2024-02-21T07:49:18;17.75;;;2.25;;
3696;SDS011;60662;48.810;8.872;2024-02-21T07:50:19;12.25;;;2.38;;
3696;SDS011;60662;48.810;8.872;2024-02-21T07:51:21;8.05;;;1.70;;
3696;SDS011;60662;48.810;8.872;2024-02-21T07:52:22;7.85;;;2.15;;
3696;SDS011;60662;48.810;8.872;2024-02-21T07:53:24;12.23;;;3.30;;
3696;SDS011;60662;48.810;8.872;2024-02-21T07:54:25;6.25;;;2.17;;
3696;SDS011;60662;48.810;8.872;2024-02-21T07:55:27;18.50;;;3.10;;
3696;SDS011;60662;48.810;8.872;2024-02-21T07:56:29;13.38;;;2.15;;
3696;SDS011;60662;48.810;8.872;2024-02-21T07:57:31;15.93;;;1.73;;
3696;SDS011;60662;48.810;8.872;2024-02-21T07:58:32;12.15;;;2.35;;
3696;SDS011;60662;48.810;8.872;2024-02-21T07:59:34;11.05;;;2.28;;
3696;SDS011;60662;48.810;8.872;2024-02-21T08:00:35;8.93;;;1.98;;
3696;SDS011;60662;48.810;8.872;2024-02-21T08:01:37;14.40;;;2.78;;
3696;SDS011;60662;48.810;8.872;2024-02-21T08:02:39;10.48;;;2.00;;
3696;SDS011;60662;48.810;8.872;2024-02-21T08:03:40;9.85;;;2.10;;
3696;SDS011;60662;48.810;8.872;2024-02-21T08:04:41;11.70;;;2.60;;
3696;SDS011;60662;48.810;8.872;2024-02-21T08:05:43;8.70;;;2.15;;
3696;SDS011;60662;48.810;8.872;2024-02-21T08:06:45;13.93;;;1.98;;
3696;SDS011;60662;48.810;8.872;2024-02-21T08:07:49;8.32;;;2.38;;
3696;SDS011;60662;48.810;8.872;2024-02-21T08:08:51;12.02;;;2.30;;
3696;SDS011;60662;48.810;8.872;2024-02-21T08:09:52;5.25;;;1.80;;
3696;SDS011;60662;48.810;8.872;2024-02-21T08:10:54;12.80;;;2.30;;
3696;SDS011;60662;48.810;8.872;2024-02-21T08:11:56;5.63;;;2.45;;
3696;SDS011;60662;48.810;8.872;2024-02-21T08:12:57;18.70;;;2.50;;
3696;SDS011;60662;48.810;8.872;2024-02-21T08:13:59;8.07;;;2.00;;
3696;SDS011;60662;48.810;8.872;2024-02-21T08:15:01;6.80;;;2.05;;
3696;SDS011;60662;48.810;8.872;2024-02-21T08:16:05;11.85;;;2.83;;
3696;SDS011;60662;48.810;8.872;2024-02-21T08:17:06;17.23;;;2.00;;
3696;SDS011;60662;48.810;8.872;2024-02-21T08:18:08;6.45;;;2.22;;
3696;SDS011;60662;48.810;8.872;2024-02-21T08:19:10;9.65;;;1.85;;
3696;SDS011;60662;48.810;8.872;2024-02-21T08:20:12;8.07;;;1.88;;
3696;SDS011;60662;48.810;8.872;2024-02-21T08:21:13;12.90;;;3.00;;
3696;SDS011;60662;48.810;8.872;2024-02-21T08:22:15;12.95;;;2.30;;
3696;SDS011;60662;48.810;8.872;2024-02-21T08:23:18;7.78;;;1.90;;
3696;SDS011;60662;48.810;8.872;2024-02-21T08:24:20;8.80;;;2.20;;
3696;SDS011;60662;48.810;8.872;2024-02-21T08:25:23;12.68;;;2.33;;
3696;SDS011;60662;48.810;8.872;2024-02-21T08:26:25;7.78;;;1.85;;
3696;SDS011;60662;48.810;8.872;2024-02-21T08:27:29;8.65;;;2.38;;
3696;SDS011;60662;48.810;8.872;2024-02-21T08:28:31;7.85;;;2.00;;
3696;SDS011;60662;48.810;8.872;2024-02-21T08:29:33;11.82;;;2.63;;
3696;SDS011;60662;48.810;8.872;2024-02-21T08:30:34;9.98;;;2.65;;
3696;SDS011;60662;48.810;8.872;2024-02-21T08:31:36;6.38;;;1.90;;
3696;SDS011;60662;48.810;8.872;2024-02-21T08:32:37;13.35;;;2.15;;
3696;SDS011;60662;48.810;8.872;2024-02-21T08:33:39;8.77;;;2.05;;
3696;SDS011;60662;48.810;8.872;2024-02-21T08:34:41;14.52;;;2.78;;
3696;SDS011;60662;48.810;8.872;2024-02-21T08:35:42;9.77;;;2.13;;
3696;SDS011;60662;48.810;8.872;2024-02-21T08:36:44;16.65;;;3.10;;
3696;SDS011;60662;48.810;8.872;2024-02-21T08:37:46;12.05;;;1.80;;
3696;SDS011;60662;48.810;8.872;2024-02-21T08:38:49;12.20;;;2.60;;
3696;SDS011;60662;48.810;8.872;2024-02-21T08:39:50;10.70;;;2.15;;
3696;SDS011;60662;48.810;8.872;2024-02-21T08:40:52;6.30;;;2.20;;
3696;SDS011;60662;48.810;8.872;2024-02-21T08:41:54;7.10;;;1.90;;
3696;SDS011;60662;48.810;8.872;2024-02-21T08:42:58;11.25;;;2.58;;
3696;SDS011;60662;48.810;8.872;2024-02-21T08:43:59;7.60;;;2.05;;
3696;SDS011;60662;48.810;8.872;2024-02-21T08:45:02;9.10;;;2.75;;
3696;SDS011;60662;48.810;8.872;2024-02-21T08:46:04;15.50;;;3.95;;
3696;SDS011;60662;48.810;8.872;2024-02-21T08:47:06;16.60;;;2.40;;
3696;SDS011;60662;48.810;8.872;2024-02-21T08:48:09;22.23;;;7.70;;
3696;SDS011;60662;48.810;8.872;2024-02-21T08:49:18;25.73;;;9.77;;
3696;SDS011;60662;48.810;8.872;2024-02-21T08:50:19;24.77;;;10.63;;
3696;SDS011;60662;48.810;8.872;2024-02-21T08:51:29;16.30;;;4.13;;
3696;SDS011;60662;48.810;8.872;2024-02-21T08:52:31;15.52;;;7.32;;
3696;SDS011;60662;48.810;8.872;2024-02-21T08:53:33;12.07;;;3.30;;
3696;SDS011;60662;48.810;8.872;2024-02-21T08:54:34;7.75;;;2.15;;
3696;SDS011;60662;48.810;8.872;2024-02-21T08:55:36;16.50;;;2.60;;
3696;SDS011;60662;48.810;8.872;2024-02-21T08:56:37;13.15;;;3.88;;
3696;SDS011;60662;48.810;8.872;2024-02-21T08:57:39;7.53;;;2.53;;
3696;SDS011;60662;48.810;8.872;2024-02-21T08:58:40;9.88;;;1.85;;
3696;SDS011;60662;48.810;8.872;2024-02-21T08:59:42;11.82;;;2.42;;
3696;SDS011;60662;48.810;8.872;2024-02-21T09:00:43;12.02;;;2.55;;
3696;SDS011;60662;48.810;8.872;2024-02-21T09:01:45;8.85;;;2.33;;
3696;SDS011;60662;48.810;8.872;2024-02-21T09:02:46;13.25;;;2.65;;
3696;SDS011;60662;48.810;8.872;2024-02-21T09:03:48;10.48;;;2.33;;
3696;SDS011;60662;48.810;8.872;2024-02-21T09:04:53;6.90;;;2.20;;
3696;SDS011;60662;48.810;8.872;2024-02-21T09:05:55;12.23;;;2.30;;
3696;SDS011;60662;48.810;8.872;2024-02-21T09:06:56;12.57;;;2.90;;
3696;SDS011;60662;48.810;8.872;2024-02-21T09:07:58;11.57;;;2.30;;
3696;SDS011;60662;48.810;8.872;2024-02-21T09:09:00;12.40;;;2.42;;
3696;SDS011;60662;48.810;8.872;2024-02-21T09:10:02;8.38;;;2.15;;
3696;SDS011;60662;48.810;8.872;2024-02-21T09:11:05;13.38;;;2.63;;
3696;SDS011;60662;48.810;8.872;2024-02-21T09:12:07;14.85;;;2.00;;
3696;SDS011;60662;48.810;8.872;2024-02-21T09:13:09;9.43;;;2.35;;
3696;SDS011;60662;48.810;8.872;2024-02-21T09:14:10;17.55;;;2.60;;
3696;SDS011;60662;48.810;8.872;2024-02-21T09:15:12;10.57;;;2.03;;
3696;SDS011;60662;48.810;8.872;2024-02-21T09:16:13;14.40;;;2.20;;
3696;SDS011;60662;48.810;8.872;2024-02-21T09:17:15;6.57;;;1.73;;
3696;SDS011;60662;48.810;8.872;2024-02-21T09:18:18;11.85;;;2.60;;
3696;SDS011;60662;48.810;8.872;2024-02-21T09:19:19;8.13;;;2.17;;
3696;SDS011;60662;48.810;8.872;2024-02-21T09:20:22;11.95;;;1.90;;
3696;SDS011;60662;48.810;8.872;2024-02-21T09:21:23;14.05;;;2.40;;
3696;SDS011;60662;48.810;8.872;2024-02-21T09:22:25;17.17;;;2.50;;
3696;SDS011;60662;48.810;8.872;2024-02-21T09:23:26;8.38;;;2.60;;
3696;SDS011;60662;48.810;8.872;2024-02-21T09:24:28;14.30;;;2.80;;
3696;SDS011;60662;48.810;8.872;2024-02-21T09:25:29;12.05;;;2.72;;
3696;SDS011;60662;48.810;8.872;2024-02-21T09:26:33;14.38;;;3.45;;
3696;SDS011;60662;48.810;8.872;2024-02-21T09:27:34;14.05;;;2.75;;
3696;SDS011;60662;48.810;8.872;2024-02-21T09:28:36;12.35;;;2.50;;
3696;SDS011;60662;48.810;8.872;2024-02-21T09:29:37;10.57;;;2.80;;
3696;SDS011;60662;48.810;8.872;2024-02-21T09:30:41;11.90;;;2.10;;
3696;SDS011;60662;48.810;8.872;2024-02-21T09:31:42;11.55;;;2.03;;
3696;SDS011;60662;48.810;8.872;2024-02-21T09:32:44;9.52;;;2.35;;
3696;SDS011;60662;48.810;8.872;2024-02-21T09:33:46;6.70;;;1.90;;
3696;SDS011;60662;48.810;8.872;2024-02-21T09:34:47;11.55;;;3.08;;
3696;SDS011;60662;48.810;8.872;2024-02-21T09:35:49;26.52;;;8.48;;
3696;SDS011;60662;48.810;8.872;2024-02-21T09:36:52;18.95;;;7.28;;
3696;SDS011;60662;48.810;8.872;2024-02-21T09:37:53;7.50;;;2.30;;
3696;SDS011;60662;48.810;8.872;2024-02-21T09:38:55;9.52;;;2.83;;
3696;SDS011;60662;48.810;8.872;2024-02-21T09:39:56;7.97;;;2.45;;
3696;SDS011;60662;48.810;8.872;2024-02-21T09:40:59;10.15;;;1.80;;
3696;SDS011;60662;48.810;8.872;2024-02-21T09:42:08;18.08;;;2.65;;
3696;SDS011;60662;48.810;8.872;2024-02-21T09:43:12;9.93;;;1.90;;
3696;SDS011;60662;48.810;8.872;2024-02-21T09:44:19;16.25;;;2.00;;
3696;SDS011;60662;48.810;8.872;2024-02-21T09:45:21;14.52;;;2.50;;
3696;SDS011;60662;48.810;8.872;2024-02-21T09:46:24;10.35;;;1.98;;
3696;SDS011;60662;48.810;8.872;2024-02-21T09:50:22;9.45;;;2.38;;
3696;SDS011;60662;48.810;8.872;2024-02-21T09:51:27;7.28;;;2.25;;
3696;SDS011;60662;48.810;8.872;2024-02-21T09:52:32;5.60;;;1.80;;
3696;SDS011;60662;48.810;8.872;2024-02-21T09:53:37;7.70;;;1.70;;
3696;SDS011;60662;48.810;8.872;2024-02-21T09:54:40;7.50;;;2.22;;
3696;SDS011;60662;48.810;8.872;2024-02-21T09:55:43;5.70;;;1.67;;
3696;SDS011;60662;48.810;8.872;2024-02-21T09:56:45;10.05;;;2.67;;
3696;SDS011;60662;48.810;8.872;2024-02-21T09:57:48;15.48;;;2.53;;
3696;SDS011;60662;48.810;8.872;2024-02-21T09:58:51;12.90;;;1.80;;
3696;SDS011;60662;48.810;8.872;2024-02-21T09:59:52;12.10;;;2.00;;
3696;SDS011;60662;48.810;8.872;2024-02-21T10:00:56;7.60;;;1.73;;
3696;SDS011;60662;48.810;8.872;2024-02-21T10:01:59;9.23;;;2.05;;
3696;SDS011;60662;48.810;8.872;2024-02-21T10:03:02;12.95;;;2.20;;
3696;SDS011;60662;48.810;8.872;2024-02-21T10:04:10;8.45;;;1.60;;
3696;SDS011;60662;48.810;8.872;2024-02-21T10:05:11;9.82;;;2.33;;
3696;SDS011;60662;48.810;8.872;2024-02-21T10:06:13;10.40;;;2.25;;
3696;SDS011;60662;48.810;8.872;2024-02-21T10:07:15;7.60;;;2.00;;
3696;SDS011;60662;48.810;8.872;2024-02-21T10:08:16;8.07;;;2.03;;
3696;SDS011;60662;48.810;8.872;2024-02-21T10:09:22;16.02;;;2.70;;
3696;SDS011;60662;48.810;8.872;2024-02-21T10:10:24;9.38;;;1.60;;
3696;SDS011;60662;48.810;8.872;2024-02-21T10:11:28;15.65;;;2.65;;
3696;SDS011;60662;48.810;8.872;2024-02-21T10:12:30;5.85;;;1.95;;
3696;SDS011;60662;48.810;8.872;2024-02-21T10:13:31;12.55;;;2.50;;
3696;SDS011;60662;48.810;8.872;2024-02-21T10:14:33;10.07;;;2.90;;
3696;SDS011;60662;48.810;8.872;2024-02-21T10:15:34;9.88;;;1.83;;
3696;SDS011;60662;48.810;8.872;2024-02-21T10:16:36;8.65;;;2.20;;
3696;SDS011;60662;48.810;8.872;2024-02-21T10:17:38;8.07;;;1.90;;
3696;SDS011;60662;48.810;8.872;2024-02-21T10:18:41;16.75;;;2.53;;
3696;SDS011;60662;48.810;8.872;2024-02-21T10:19:43;8.50;;;2.00;;
3696;SDS011;60662;48.810;8.872;2024-02-21T10:20:44;7.88;;;2.10;;
3696;SDS011;60662;48.810;8.872;2024-02-21T10:22:02;7.15;;;2.13;;
3696;SDS011;60662;48.810;8.872;2024-02-21T10:23:05;20.30;;;2.13;;
3696;SDS011;60662;48.810;8.872;2024-02-21T10:24:11;15.13;;;2.13;;
3696;SDS011;60662;48.810;8.872;2024-02-21T10:25:13;9.50;;;1.80;;
3696;SDS011;60662;48.810;8.872;2024-02-21T10:26:16;12.32;;;1.95;;
3696;SDS011;60662;48.810;8.872;2024-02-21T10:27:19;8.15;;;2.20;;
3696;SDS011;60662;48.810;8.872;2024-02-21T10:28:20;7.38;;;2.08;;
3696;SDS011;60662;48.810;8.872;2024-02-21T10:29:24;6.80;;;2.20;;
3696;SDS011;60662;48.810;8.872;2024-02-21T10:30:26;11.27;;;2.65;;
3696;SDS011;60662;48.810;8.872;2024-02-21T10:31:27;9.05;;;2.00;;
3696;SDS011;60662;48.810;8.872;2024-02-21T10:32:30;6.90;;;1.88;;
3696;SDS011;60662;48.810;8.872;2024-02-21T10:33:32;6.95;;;2.13;;
3696;SDS011;60662;48.810;8.872;2024-02-21T10:34:34;6.00;;;2.13;;
3696;SDS011;60662;48.810;8.872;2024-02-21T10:35:36;7.78;;;2.00;;
3696;SDS011;60662;48.810;8.872;2024-02-21T10:36:38;7.88;;;1.95;;
3696;SDS011;60662;48.810;8.872;2024-02-21T10:37:39;11.90;;;1.90;;
3696;SDS011;60662;48.810;8.872;2024-02-21T10:38:41;11.38;;;2.55;;
3696;SDS011;60662;48.810;8.872;2024-02-21T10:39:42;12.48;;;2.05;;
3696;SDS011;60662;48.810;8.872;2024-02-21T10:40:46;12.82;;;2.45;;
3696;SDS011;60662;48.810;8.872;2024-02-21T10:41:49;11.95;;;2.08;;
3696;SDS011;60662;48.810;8.872;2024-02-21T10:42:54;8.88;;;1.80;;
3696;SDS011;60662;48.810;8.872;2024-02-21T10:44:00;4.97;;;1.77;;
3696;SDS011;60662;48.810;8.872;2024-02-21T10:45:06;13.40;;;1.83;;
3696;SDS011;60662;48.810;8.872;2024-02-21T10:46:08;8.30;;;2.33;;
3696;SDS011;60662;48.810;8.872;2024-02-21T10:47:11;9.38;;;1.85;;
3696;SDS011;60662;48.810;8.872;2024-02-21T10:48:20;4.32;;;1.58;;
3696;SDS011;60662;48.810;8.872;2024-02-21T10:49:30;9.43;;;2.38;;
3696;SDS011;60662;48.810;8.872;2024-02-21T10:50:33;11.68;;;2.20;;
3696;SDS011;60662;48.810;8.872;2024-02-21T10:51:45;13.82;;;2.60;;
3696;SDS011;60662;48.810;8.872;2024-02-21T10:52:51;6.32;;;1.73;;
3696;SDS011;60662;48.810;8.872;2024-02-21T10:55:36;6.35;;;1.70;;
3696;SDS011;60662;48.810;8.872;2024-02-21T10:56:41;12.23;;;2.03;;
3696;SDS011;60662;48.810;8.872;2024-02-21T10:57:42;6.70;;;1.80;;
3696;SDS011;60662;48.810;8.872;2024-02-21T10:58:45;14.10;;;2.22;;
3696;SDS011;60662;48.810;8.872;2024-02-21T10:59:47;13.55;;;2.00;;
3696;SDS011;60662;48.810;8.872;2024-02-21T11:00:49;6.32;;;1.95;;
3696;SDS011;60662;48.810;8.872;2024-02-21T11:01:51;6.68;;;1.75;;
3696;SDS011;60662;48.810;8.872;2024-02-21T11:02:53;5.55;;;1.65;;
3696;SDS011;60662;48.810;8.872;2024-02-21T11:03:55;4.22;;;1.92;;
3696;SDS011;60662;48.810;8.872;2024-02-21T11:04:59;7.38;;;1.50;;
3696;SDS011;60662;48.810;8.872;2024-02-21T11:06:04;14.10;;;5.15;;
3696;SDS011;60662;48.810;8.872;2024-02-21T11:07:06;14.35;;;5.43;;
3696;SDS011;60662;48.810;8.872;2024-02-21T11:08:11;11.20;;;3.13;;
3696;SDS011;60662;48.810;8.872;2024-02-21T11:09:17;9.90;;;3.67;;
3696;SDS011;60662;48.810;8.872;2024-02-21T11:10:24;12.65;;;4.85;;
3696;SDS011;60662;48.810;8.872;2024-02-21T11:11:27;4.35;;;1.65;;
3696;SDS011;60662;48.810;8.872;2024-02-21T11:12:39;11.52;;;2.13;;
3696;SDS011;60662;48.810;8.872;2024-02-21T11:13:41;10.40;;;3.60;;
3696;SDS011;60662;48.810;8.872;2024-02-21T11:14:44;13.32;;;1.80;;
3696;SDS011;60662;48.810;8.872;2024-02-21T11:15:45;7.03;;;2.10;;
3696;SDS011;60662;48.810;8.872;2024-02-21T11:16:49;6.22;;;2.25;;
3696;SDS011;60662;48.810;8.872;2024-02-21T11:17:54;11.35;;;2.63;;
3696;SDS011;60662;48.810;8.872;2024-02-21T11:19:05;4.90;;;1.55;;
3696;SDS011;60662;48.810;8.872;2024-02-21T11:20:12;5.50;;;1.27;;
3696;SDS011;60662;48.810;8.872;2024-02-21T11:21:15;7.13;;;1.60;;
3696;SDS011;60662;48.810;8.872;2024-02-21T11:22:17;4.20;;;1.45;;
3696;SDS011;60662;48.810;8.872;2024-02-21T11:23:25;6.22;;;1.75;;
3696;SDS011;60662;48.810;8.872;2024-02-21T11:25:33;9.60;;;1.60;;
3696;SDS011;60662;48.810;8.872;2024-02-21T11:26:39;9.63;;;1.60;;
3696;SDS011;60662;48.810;8.872;2024-02-21T11:27:47;7.35;;;1.65;;
3696;SDS011;60662;48.810;8.872;2024-02-21T11:28:56;5.35;;;1.70;;
3696;SDS011;60662;48.810;8.872;2024-02-21T11:29:58;10.75;;;1.55;;
3696;SDS011;60662;48.810;8.872;2024-02-21T11:31:11;9.93;;;1.73;;
3696;SDS011;60662;48.810;8.872;2024-02-21T11:32:17;5.80;;;1.60;;
3696;SDS011;60662;48.810;8.872;2024-02-21T11:33:22;8.90;;;2.05;;
3696;SDS011;60662;48.810;8.872;2024-02-21T11:34:25;2.78;;;1.27;;
3696;SDS011;60662;48.810;8.872;2024-02-21T11:35:26;5.90;;;1.40;;
3696;SDS011;60662;48.810;8.872;2024-02-21T11:36:32;11.98;;;1.70;;
3696;SDS011;60662;48.810;8.872;2024-02-21T11:37:34;6.60;;;1.67;;
3696;SDS011;60662;48.810;8.872;2024-02-21T11:38:40;8.93;;;1.70;;
3696;SDS011;60662;48.810;8.872;2024-02-21T11:39:42;3.55;;;1.38;;
3696;SDS011;60662;48.810;8.872;2024-02-21T11:40:44;4.90;;;1.60;;
3696;SDS011;60662;48.810;8.872;2024-02-21T11:41:48;7.05;;;1.73;;
3696;SDS011;60662;48.810;8.872;2024-02-21T11:43:01;8.88;;;1.95;;
3696;SDS011;60662;48.810;8.872;2024-02-21T11:44:03;7.43;;;1.70;;
3696;SDS011;60662;48.810;8.872;2024-02-21T11:45:06;4.28;;;1.40;;
3696;SDS011;60662;48.810;8.872;2024-02-21T11:46:08;6.80;;;2.67;;
3696;SDS011;60662;48.810;8.872;2024-02-21T11:47:10;5.88;;;1.77;;
3696;SDS011;60662;48.810;8.872;2024-02-21T11:48:12;6.15;;;1.70;;
3696;SDS011;60662;48.810;8.872;2024-02-21T11:49:15;4.55;;;1.10;;
3696;SDS011;60662;48.810;8.872;2024-02-21T11:50:17;15.35;;;2.17;;
3696;SDS011;60662;48.810;8.872;2024-02-21T11:51:24;5.55;;;1.40;;
3696;SDS011;60662;48.810;8.872;2024-02-21T11:52:26;7.50;;;1.80;;
3696;SDS011;60662;48.810;8.872;2024-02-21T11:53:29;6.47;;;1.35;;
3696;SDS011;60662;48.810;8.872;2024-02-21T11:54:36;4.20;;;1.35;;
3696;SDS011;60662;48.810;8.872;2024-02-21T11:55:37;6.65;;;1.40;;
3696;SDS011;60662;48.810;8.872;2024-02-21T11:56:39;6.53;;;1.80;;
3696;SDS011;60662;48.810;8.872;2024-02-21T11:57:40;8.10;;;1.48;;
3696;SDS011;60662;48.810;8.872;2024-02-21T11:58:45;5.47;;;1.30;;
3696;SDS011;60662;48.810;8.872;2024-02-21T11:59:48;7.43;;;1.60;;
3696;SDS011;60662;48.810;8.872;2024-02-21T12:00:58;7.95;;;2.00;;
3696;SDS011;60662;48.810;8.872;2024-02-21T12:02:00;7.85;;;1.60;;
3696;SDS011;60662;48.810;8.872;2024-02-21T12:03:04;5.50;;;1.40;;
3696;SDS011;60662;48.810;8.872;2024-02-21T12:04:06;8.68;;;2.10;;
3696;SDS011;60662;48.810;8.872;2024-02-21T12:05:07;6.13;;;1.67;;
3696;SDS011;60662;48.810;8.872;2024-02-21T12:06:09;6.43;;;1.33;;
3696;SDS011;60662;48.810;8.872;2024-02-21T12:07:11;3.20;;;1.30;;
3696;SDS011;60662;48.810;8.872;2024-02-21T12:08:13;8.60;;;1.70;;
3696;SDS011;60662;48.810;8.872;2024-02-21T12:09:15;6.38;;;1.27;;
3696;SDS011;60662;48.810;8.872;2024-02-21T12:10:17;6.53;;;1.90;;
3696;SDS011;60662;48.810;8.872;2024-02-21T12:11:22;6.30;;;1.75;;
3696;SDS011;60662;48.810;8.872;2024-02-21T12:12:24;10.20;;;1.40;;
3696;SDS011;60662;48.810;8.872;2024-02-21T12:13:25;11.05;;;2.33;;
3696;SDS011;60662;48.810;8.872;2024-02-21T12:14:27;8.55;;;2.25;;
3696;SDS011;60662;48.810;8.872;2024-02-21T12:15:31;9.00;;;2.15;;
3696;SDS011;60662;48.810;8.872;2024-02-21T12:16:32;7.60;;;1.60;;
3696;SDS011;60662;48.810;8.872;2024-02-21T12:17:34;9.77;;;1.88;;
3696;SDS011;60662;48.810;8.872;2024-02-21T12:18:40;12.15;;;1.90;;
3696;SDS011;60662;48.810;8.872;2024-02-21T12:19:42;9.73;;;1.83;;
3696;SDS011;60662;48.810;8.872;2024-02-21T12:20:43;6.75;;;1.58;;
3696;SDS011;60662;48.810;8.872;2024-02-21T12:21:48;6.47;;;1.60;;
3696;SDS011;60662;48.810;8.872;2024-02-21T12:22:51;5.78;;;1.50;;
3696;SDS011;60662;48.810;8.872;2024-02-21T12:23:54;4.85;;;1.50;;
3696;SDS011;60662;48.810;8.872;2024-02-21T12:24:56;3.95;;;1.23;;
3696;SDS011;60662;48.810;8.872;2024-02-21T12:25:59;7.18;;;1.65;;
3696;SDS011;60662;48.810;8.872;2024-02-21T12:27:00;6.13;;;1.70;;
3696;SDS011;60662;48.810;8.872;2024-02-21T12:28:05;7.18;;;1.35;;
3696;SDS011;60662;48.810;8.872;2024-02-21T12:29:07;4.15;;;1.40;;
3696;SDS011;60662;48.810;8.872;2024-02-21T12:30:12;6.10;;;1.50;;
3696;SDS011;60662;48.810;8.872;2024-02-21T12:31:13;8.82;;;1.30;;
3696;SDS011;60662;48.810;8.872;2024-02-21T12:32:17;7.30;;;1.40;;
3696;SDS011;60662;48.810;8.872;2024-02-21T12:33:18;12.93;;;1.75;;
3696;SDS011;60662;48.810;8.872;2024-02-21T12:34:20;6.72;;;1.52;;
3696;SDS011;60662;48.810;8.872;2024-02-21T12:35:38;8.60;;;1.40;;
3696;SDS011;60662;48.810;8.872;2024-02-21T12:36:46;8.40;;;1.40;;
3696;SDS011;60662;48.810;8.872;2024-02-21T12:37:50;10.90;;;1.65;;
3696;SDS011;60662;48.810;8.872;2024-02-21T12:38:52;5.80;;;1.35;;
3696;SDS011;60662;48.810;8.872;2024-02-21T12:39:53;9.52;;;1.38;;
3696;SDS011;60662;48.810;8.872;2024-02-21T12:40:55;3.40;;;1.20;;
3696;SDS011;60662;48.810;8.872;2024-02-21T12:41:58;5.30;;;1.35;;
3696;SDS011;60662;48.810;8.872;2024-02-21T12:43:00;5.57;;;1.45;;
3696;SDS011;60662;48.810;8.872;2024-02-21T12:44:04;9.45;;;1.90;;
3696;SDS011;60662;48.810;8.872;2024-02-21T12:45:13;3.53;;;1.17;;
3696;SDS011;60662;48.810;8.872;2024-02-21T12:46:16;4.90;;;1.52;;
3696;SDS011;60662;48.810;8.872;2024-02-21T12:47:18;3.85;;;1.15;;
3696;SDS011;60662;48.810;8.872;2024-02-21T12:48:21;3.65;;;1.17;;
3696;SDS011;60662;48.810;8.872;2024-02-21T12:49:23;7.22;;;0.98;;
3696;SDS011;60662;48.810;8.872;2024-02-21T12:50:25;6.10;;;1.13;;
3696;SDS011;60662;48.810;8.872;2024-02-21T12:51:27;4.95;;;1.40;;
3696;SDS011;60662;48.810;8.872;2024-02-21T12:52:29;6.68;;;3.00;;
3696;SDS011;60662;48.810;8.872;2024-02-21T12:53:30;4.10;;;1.30;;
3696;SDS011;60662;48.810;8.872;2024-02-21T12:54:34;5.63;;;1.40;;
3696;SDS011;60662;48.810;8.872;2024-02-21T12:55:35;3.47;;;1.00;;
3696;SDS011;60662;48.810;8.872;2024-02-21T12:56:37;3.42;;;1.25;;
3696;SDS011;60662;48.810;8.872;2024-02-21T12:57:39;2.38;;;0.90;;
3696;SDS011;60662;48.810;8.872;2024-02-21T12:58:41;4.25;;;1.15;;
3696;SDS011;60662;48.810;8.872;2024-02-21T12:59:42;3.60;;;1.10;;
3696;SDS011;60662;48.810;8.872;2024-02-21T13:00:44;6.70;;;1.00;;
3696;SDS011;60662;48.810;8.872;2024-02-21T13:01:45;5.15;;;1.00;;
3696;SDS011;60662;48.810;8.872;2024-02-21T13:02:47;2.00;;;0.77;;
3696;SDS011;60662;48.810;8.872;2024-02-21T13:03:48;2.65;;;1.10;;
3696;SDS011;60662;48.810;8.872;2024-02-21T13:04:50;3.47;;;0.98;;
3696;SDS011;60662;48.810;8.872;2024-02-21T13:05:51;2.78;;;1.20;;
3696;SDS011;60662;48.810;8.872;2024-02-21T13:06:53;3.95;;;1.10;;
3696;SDS011;60662;48.810;8.872;2024-02-21T13:07:56;5.03;;;1.15;;
3696;SDS011;60662;48.810;8.872;2024-02-21T13:08:58;2.60;;;0.90;;
3696;SDS011;60662;48.810;8.872;2024-02-21T13:10:00;2.45;;;0.85;;
3696;SDS011;60662;48.810;8.872;2024-02-21T13:11:02;3.15;;;0.90;;
3696;SDS011;60662;48.810;8.872;2024-02-21T13:12:04;1.92;;;0.98;;
3696;SDS011;60662;48.810;8.872;2024-02-21T13:13:05;2.92;;;1.00;;
3696;SDS011;60662;48.810;8.872;2024-02-21T13:14:07;5.82;;;0.90;;
3696;SDS011;60662;48.810;8.872;2024-02-21T13:15:09;4.30;;;0.70;;
3696;SDS011;60662;48.810;8.872;2024-02-21T13:16:13;3.22;;;0.90;;
3696;SDS011;60662;48.810;8.872;2024-02-21T13:17:14;3.33;;;1.05;;
3696;SDS011;60662;48.810;8.872;2024-02-21T13:18:18;3.33;;;0.80;;
3696;SDS011;60662;48.810;8.872;2024-02-21T13:19:19;3.97;;;1.20;;
3696;SDS011;60662;48.810;8.872;2024-02-21T13:20:21;4.38;;;1.08;;
3696;SDS011;60662;48.810;8.872;2024-02-21T13:21:23;3.88;;;1.00;;
3696;SDS011;60662;48.810;8.872;2024-02-21T13:22:25;2.20;;;0.60;;
3696;SDS011;60662;48.810;8.872;2024-02-21T13:23:29;2.95;;;0.88;;
3696;SDS011;60662;48.810;8.872;2024-02-21T13:24:30;2.90;;;1.10;;
3696;SDS011;60662;48.810;8.872;2024-02-21T13:25:32;2.42;;;0.85;;
3696;SDS011;60662;48.810;8.872;2024-02-21T13:26:34;2.60;;;0.85;;
3696;SDS011;60662;48.810;8.872;2024-02-21T13:27:35;6.10;;;1.00;;
3696;SDS011;60662;48.810;8.872;2024-02-21T13:28:37;4.03;;;1.20;;
3696;SDS011;60662;48.810;8.872;2024-02-21T13:29:38;4.72;;;1.20;;
3696;SDS011;60662;48.810;8.872;2024-02-21T13:30:40;3.35;;;1.05;;
3696;SDS011;60662;48.810;8.872;2024-02-21T13:31:42;4.20;;;0.95;;
3696;SDS011;60662;48.810;8.872;2024-02-21T13:32:43;2.60;;;1.17;;
3696;SDS011;60662;48.810;8.872;2024-02-21T13:33:47;4.32;;;1.00;;
3696;SDS011;60662;48.810;8.872;2024-02-21T13:34:49;5.90;;;1.33;;
3696;SDS011;60662;48.810;8.872;2024-02-21T13:35:50;2.58;;;1.00;;
3696;SDS011;60662;48.810;8.872;2024-02-21T13:36:52;5.72;;;1.20;;
3696;SDS011;60662;48.810;8.872;2024-02-21T13:37:53;6.00;;;1.55;;